Time;durP1;ratioP1;P1;durP2;ratioP2;P2;SDS_P1;SDS_P2;PMS_P1;PMS_P2;Temp;Humidity;BMP_temperature;BMP_pressure;BME280_temperature;BME280_humidity;BME280_pressure;Samples;Min_cycle;Max_cycle;Signal;HPM_P1;HPM_P2
2023/07/15 00:00:49;;;;;;;4.97;3.15;;;18.60;99.90;;;;;;5079037;28;20032;-72
2023/07/15 00:03:16;;;;;;;6.68;2.80;;;18.60;99.90;;;;;;5081144;28;20045;-72
2023/07/15 00:05:42;;;;;;;4.47;3.00;;;18.50;99.90;;;;;;5078654;28;20177;-72
2023/07/15 00:08:08;;;;;;;5.03;2.90;;;18.50;99.90;;;;;;5082357;28;20049;-72
2023/07/15 00:10:36;;;;;;;3.83;2.58;;;18.50;99.90;;;;;;5074765;28;20047;-72
2023/07/15 00:13:03;;;;;;;4.45;2.72;;;18.50;99.90;;;;;;5076869;28;20108;-72
2023/07/15 00:15:28;;;;;;;4.05;2.72;;;18.40;99.90;;;;;;5083125;28;20426;-72
2023/07/15 00:17:54;;;;;;;4.22;2.50;;;18.40;99.90;;;;;;5075296;28;20123;-72
2023/07/15 00:20:20;;;;;;;4.25;2.60;;;18.40;99.90;;;;;;5088389;28;20353;-72
2023/07/15 00:22:47;;;;;;;6.20;2.70;;;18.30;99.90;;;;;;5080342;28;20041;-72
2023/07/15 00:25:16;;;;;;;5.93;2.88;;;18.30;99.90;;;;;;5075509;28;20102;-72
2023/07/15 00:27:46;;;;;;;3.90;2.70;;;18.30;99.90;;;;;;5077923;28;20052;-72
2023/07/15 00:30:14;;;;;;;5.03;3.10;;;18.30;99.90;;;;;;5090415;28;20063;-71
2023/07/15 00:32:51;;;;;;;3.67;2.72;;;18.20;99.90;;;;;;5078759;28;20048;-72
2023/07/15 00:35:22;;;;;;;6.28;2.60;;;18.20;99.90;;;;;;5088570;28;20040;-72
2023/07/15 00:37:48;;;;;;;3.95;2.60;;;18.30;99.90;;;;;;5076370;28;20094;-73
2023/07/15 00:40:15;;;;;;;3.85;2.63;;;18.30;99.90;;;;;;5075448;28;20036;-71
2023/07/15 00:42:52;;;;;;;3.88;2.58;;;18.30;99.90;;;;;;5057475;28;20127;-72
2023/07/15 00:45:18;;;;;;;5.20;2.88;;;18.40;99.90;;;;;;5056311;28;20080;-71
2023/07/15 00:48:02;;;;;;;4.60;2.60;;;18.40;99.90;;;;;;5079704;28;20125;-72
2023/07/15 00:50:28;;;;;;;4.22;2.60;;;18.40;99.90;;;;;;5075247;28;20040;-72
2023/07/15 00:52:54;;;;;;;4.40;2.72;;;18.40;99.90;;;;;;5074669;28;20036;-72
2023/07/15 00:55:19;;;;;;;3.78;2.50;;;18.40;99.90;;;;;;5078102;28;20128;-72
2023/07/15 00:57:45;;;;;;;5.63;2.72;;;18.40;99.90;;;;;;5082387;28;20376;-72
2023/07/15 01:00:11;;;;;;;3.72;2.40;;;18.40;99.90;;;;;;5084334;28;20067;-71
2023/07/15 01:02:38;;;;;;;3.90;2.30;;;18.40;99.90;;;;;;5079478;28;20430;-71
2023/07/15 01:05:06;;;;;;;4.72;2.60;;;18.40;99.90;;;;;;5084039;28;20051;-71
2023/07/15 01:07:32;;;;;;;3.72;2.50;;;18.50;99.90;;;;;;5086727;28;20044;-71
2023/07/15 01:09:57;;;;;;;2.83;2.13;;;18.50;99.90;;;;;;5074480;28;20047;-71
2023/07/15 01:12:23;;;;;;;4.45;2.42;;;18.50;99.90;;;;;;5074907;28;20082;-71
2023/07/15 01:14:49;;;;;;;4.20;2.20;;;18.50;99.90;;;;;;5089440;28;20089;-71
2023/07/15 01:17:15;;;;;;;4.65;2.60;;;18.50;99.90;;;;;;5076048;28;20051;-72
2023/07/15 01:19:41;;;;;;;4.40;2.08;;;18.50;99.90;;;;;;5090980;28;20047;-72
2023/07/15 01:22:07;;;;;;;4.45;1.92;;;18.60;99.90;;;;;;5083183;28;20385;-72
2023/07/15 01:24:34;;;;;;;4.15;2.30;;;18.70;99.90;;;;;;5088343;28;20041;-72
2023/07/15 01:27:06;;;;;;;3.13;1.92;;;18.70;99.90;;;;;;5074498;28;20040;-72
2023/07/15 01:29:32;;;;;;;4.35;2.10;;;18.80;99.90;;;;;;5073962;28;20102;-72
2023/07/15 01:31:58;;;;;;;3.67;2.20;;;18.80;99.90;;;;;;5073678;28;20415;-72
2023/07/15 01:34:24;;;;;;;4.53;2.17;;;18.90;99.90;;;;;;5074219;28;20040;-72
2023/07/15 01:36:51;;;;;;;3.22;2.10;;;19.00;99.90;;;;;;5091573;28;20044;-73
2023/07/15 01:39:17;;;;;;;4.57;2.10;;;19.10;99.90;;;;;;5075415;28;20124;-73
2023/07/15 01:41:44;;;;;;;4.43;2.03;;;19.10;99.90;;;;;;5085261;28;20044;-73
2023/07/15 01:44:10;;;;;;;3.47;1.98;;;19.10;99.90;;;;;;5076049;28;20071;-72
2023/07/15 01:46:39;;;;;;;3.90;2.30;;;19.20;99.90;;;;;;5075412;28;20052;-72
2023/07/15 01:49:08;;;;;;;3.53;1.77;;;19.30;99.90;;;;;;5075889;28;20052;-73
2023/07/15 01:51:36;;;;;;;4.07;2.20;;;19.30;99.90;;;;;;5092243;28;20507;-72
2023/07/15 01:54:02;;;;;;;3.42;1.80;;;19.40;99.90;;;;;;5080205;28;20162;-73
2023/07/15 01:56:28;;;;;;;3.50;2.05;;;19.40;99.90;;;;;;5073880;28;20123;-73
2023/07/15 01:58:54;;;;;;;5.25;2.03;;;19.40;99.90;;;;;;5073739;28;20536;-73
2023/07/15 02:01:19;;;;;;;3.05;1.90;;;19.50;99.90;;;;;;5081445;28;20073;-71
2023/07/15 02:03:45;;;;;;;5.00;1.95;;;19.50;99.90;;;;;;5073700;28;20045;-72
2023/07/15 02:06:13;;;;;;;2.92;1.80;;;19.50;99.90;;;;;;5073232;28;20376;-72
2023/07/15 02:08:39;;;;;;;3.42;1.90;;;19.60;99.90;;;;;;5073585;28;20082;-72
2023/07/15 02:11:04;;;;;;;3.00;2.00;;;19.60;99.90;;;;;;5073576;28;20114;-73
2023/07/15 02:13:30;;;;;;;3.17;1.95;;;19.70;99.90;;;;;;5079299;28;20040;-72
2023/07/15 02:15:55;;;;;;;2.72;2.00;;;19.60;99.90;;;;;;5080563;28;20036;-72
2023/07/15 02:18:22;;;;;;;3.38;2.90;;;19.60;99.90;;;;;;5079786;28;20491;-72
2023/07/15 02:20:49;;;;;;;3.28;2.05;;;19.60;99.90;;;;;;5076567;28;20059;-72
2023/07/15 02:23:16;;;;;;;3.80;2.20;;;19.50;99.90;;;;;;5090820;28;20118;-72
2023/07/15 02:25:42;;;;;;;3.97;1.80;;;19.50;99.90;;;;;;5084965;28;20489;-72
2023/07/15 02:28:08;;;;;;;2.85;1.95;;;19.50;99.90;;;;;;5093746;28;20049;-72
2023/07/15 02:30:34;;;;;;;2.78;1.90;;;19.50;99.90;;;;;;5085980;28;20028;-72
2023/07/15 02:33:01;;;;;;;4.25;1.65;;;19.50;99.90;;;;;;5072574;28;20040;-72
2023/07/15 02:35:27;;;;;;;3.20;1.90;;;19.50;99.90;;;;;;5076160;28;20035;-72
2023/07/15 02:37:55;;;;;;;4.30;1.67;;;19.50;99.90;;;;;;5082046;28;20492;-72
2023/07/15 02:40:21;;;;;;;3.42;2.10;;;19.50;99.90;;;;;;5093362;28;20085;-72
2023/07/15 02:42:46;;;;;;;3.63;1.70;;;19.50;99.90;;;;;;5080225;28;20381;-72
2023/07/15 02:45:14;;;;;;;4.10;2.10;;;19.40;99.90;;;;;;5075356;28;20040;-72
2023/07/15 02:47:40;;;;;;;2.05;1.48;;;19.40;99.90;;;;;;5072231;28;20049;-71
2023/07/15 02:50:08;;;;;;;3.28;1.88;;;19.40;99.90;;;;;;5083978;28;20127;-72
2023/07/15 02:52:36;;;;;;;4.63;2.00;;;19.40;99.90;;;;;;5073684;28;20377;-72
2023/07/15 02:55:08;;;;;;;3.42;1.83;;;19.40;99.90;;;;;;5082330;28;20097;-71
2023/07/15 02:57:34;;;;;;;3.30;1.67;;;19.40;99.90;;;;;;5061452;28;20035;-72
2023/07/15 03:00:00;;;;;;;3.30;2.05;;;19.40;99.90;;;;;;5084930;28;20051;-72
2023/07/15 03:02:28;;;;;;;3.83;2.20;;;19.40;99.90;;;;;;5084988;28;20380;-71
2023/07/15 03:04:54;;;;;;;3.50;1.80;;;19.40;99.90;;;;;;5072664;28;20441;-72
2023/07/15 03:07:20;;;;;;;2.72;1.83;;;19.30;99.90;;;;;;5072688;28;20063;-72
2023/07/15 03:09:46;;;;;;;5.07;1.98;;;19.30;99.90;;;;;;5071540;28;20469;-71
2023/07/15 03:12:12;;;;;;;3.00;1.70;;;19.30;99.90;;;;;;5072878;28;20041;-72
2023/07/15 03:14:38;;;;;;;3.45;2.05;;;19.20;99.90;;;;;;5085731;28;20544;-72
2023/07/15 03:17:04;;;;;;;2.60;1.77;;;19.20;99.90;;;;;;5076012;28;20084;-72
2023/07/15 03:19:31;;;;;;;3.75;1.90;;;19.10;99.90;;;;;;5077531;28;20125;-72
2023/07/15 03:21:58;;;;;;;3.03;1.90;;;19.10;99.90;;;;;;5075700;28;20393;-72
2023/07/15 03:24:26;;;;;;;4.65;1.80;;;19.10;99.90;;;;;;5083404;28;20045;-72
2023/07/15 03:26:53;;;;;;;2.72;1.98;;;19.10;99.90;;;;;;5074543;28;20047;-72
2023/07/15 03:29:20;;;;;;;6.13;2.03;;;19.00;99.90;;;;;;5075872;28;20044;-72
2023/07/15 03:31:45;;;;;;;2.65;1.60;;;19.00;99.90;;;;;;5079866;28;20148;-72
2023/07/15 03:34:11;;;;;;;5.15;2.03;;;19.00;99.90;;;;;;5078631;28;20067;-72
2023/07/15 03:36:37;;;;;;;5.40;2.22;;;19.00;99.90;;;;;;5072704;28;20045;-72
2023/07/15 03:39:02;;;;;;;2.78;2.00;;;19.00;99.90;;;;;;5076235;28;20044;-72
2023/07/15 03:41:28;;;;;;;4.00;1.98;;;18.90;99.90;;;;;;5096706;28;20066;-72
2023/07/15 03:43:54;;;;;;;3.70;1.83;;;18.90;99.90;;;;;;5077941;28;20036;-72
2023/07/15 03:46:19;;;;;;;2.67;1.67;;;18.90;99.90;;;;;;5075791;28;20079;-71
2023/07/15 03:48:46;;;;;;;3.70;2.17;;;18.90;99.90;;;;;;5076118;28;20049;-72
2023/07/15 03:51:11;;;;;;;3.40;2.10;;;18.80;99.90;;;;;;5096179;28;20043;-72
2023/07/15 03:53:37;;;;;;;4.18;2.30;;;18.80;99.90;;;;;;5094494;28;20126;-72
2023/07/15 03:56:03;;;;;;;2.83;1.80;;;18.80;99.90;;;;;;5076074;28;20044;-72
2023/07/15 03:58:28;;;;;;;3.03;1.77;;;18.80;99.90;;;;;;5076025;28;20090;-71
2023/07/15 04:00:54;;;;;;;2.80;1.65;;;18.90;99.90;;;;;;5075326;28;20123;-71
2023/07/15 04:03:20;;;;;;;5.78;1.83;;;18.80;99.90;;;;;;5075667;28;20036;-72
2023/07/15 04:05:46;;;;;;;2.63;1.98;;;18.80;99.90;;;;;;5087770;28;20047;-72
2023/07/15 04:08:12;;;;;;;4.75;1.90;;;18.80;99.90;;;;;;5085673;28;20101;-72
2023/07/15 04:10:38;;;;;;;4.55;1.90;;;18.90;99.90;;;;;;5078688;28;20032;-72
2023/07/15 04:13:03;;;;;;;2.72;1.85;;;18.90;99.90;;;;;;5095573;28;20043;-72
2023/07/15 04:15:32;;;;;;;2.78;2.08;;;18.90;99.90;;;;;;5093609;28;20456;-72
2023/07/15 04:17:58;;;;;;;3.65;2.05;;;19.00;99.90;;;;;;5083559;28;20044;-72
2023/07/15 04:20:24;;;;;;;2.97;1.75;;;19.00;99.90;;;;;;5075610;28;20036;-72
2023/07/15 04:22:49;;;;;;;2.85;1.75;;;19.00;99.90;;;;;;5082236;28;20036;-72
2023/07/15 04:25:15;;;;;;;3.72;1.70;;;19.00;99.90;;;;;;5076312;28;20473;-73
2023/07/15 04:27:41;;;;;;;2.67;1.70;;;19.10;99.90;;;;;;5081304;28;20080;-72
2023/07/15 04:30:10;;;;;;;3.80;1.70;;;19.10;99.90;;;;;;5079980;28;20081;-72
2023/07/15 04:32:36;;;;;;;2.70;1.70;;;19.10;99.90;;;;;;5081393;28;20036;-72
2023/07/15 04:35:02;;;;;;;3.63;1.90;;;19.20;99.90;;;;;;5085798;28;20048;-72
2023/07/15 04:37:29;;;;;;;2.80;1.63;;;19.30;99.90;;;;;;5090980;28;20054;-72
2023/07/15 04:39:55;;;;;;;2.65;1.50;;;19.30;99.90;;;;;;5085725;28;20101;-72
2023/07/15 04:42:21;;;;;;;3.08;1.63;;;19.40;99.90;;;;;;5085236;28;20477;-71
2023/07/15 04:44:46;;;;;;;3.38;1.83;;;19.40;99.90;;;;;;5075120;28;20048;-72
2023/07/15 04:47:12;;;;;;;2.33;1.55;;;19.50;99.90;;;;;;5092577;28;20547;-72
2023/07/15 04:49:38;;;;;;;2.83;1.50;;;19.50;99.90;;;;;;5086891;28;20044;-72
2023/07/15 04:52:05;;;;;;;3.35;1.70;;;19.60;99.90;;;;;;5075079;28;20119;-72
2023/07/15 04:54:30;;;;;;;2.70;1.55;;;19.60;99.90;;;;;;5075039;28;20032;-72
2023/07/15 04:56:56;;;;;;;4.50;1.83;;;19.60;99.90;;;;;;5074959;28;20089;-72
2023/07/15 04:59:22;;;;;;;3.53;1.90;;;19.70;99.90;;;;;;5086917;28;20041;-72
2023/07/15 05:01:48;;;;;;;2.63;1.90;;;19.70;99.90;;;;;;5074028;28;20044;-72
2023/07/15 05:04:14;;;;;;;2.50;1.48;;;19.80;99.90;;;;;;5074773;28;20036;-72
2023/07/15 05:06:40;;;;;;;2.70;1.60;;;19.90;99.90;;;;;;5074940;28;20097;-71
2023/07/15 05:09:06;;;;;;;2.70;1.75;;;19.90;99.90;;;;;;5074864;28;20406;-71
2023/07/15 05:11:31;;;;;;;2.78;1.90;;;20.00;99.90;;;;;;5074194;28;20390;-71
2023/07/15 05:13:57;;;;;;;3.55;1.95;;;20.10;99.90;;;;;;5088268;28;20062;-71
2023/07/15 05:16:23;;;;;;;2.80;1.63;;;20.20;99.90;;;;;;5075025;28;20124;-71
2023/07/15 05:18:48;;;;;;;3.42;1.95;;;20.20;99.90;;;;;;5079844;28;20040;-71
2023/07/15 05:21:14;;;;;;;2.80;1.65;;;20.30;99.90;;;;;;5075884;28;20044;-71
2023/07/15 05:23:40;;;;;;;3.38;1.73;;;20.40;99.90;;;;;;5074317;28;20494;-71
2023/07/15 05:26:06;;;;;;;2.72;1.65;;;20.40;99.90;;;;;;5072854;28;20427;-71
2023/07/15 05:28:32;;;;;;;3.53;1.73;;;20.50;99.90;;;;;;5073085;28;20054;-71
2023/07/15 05:30:59;;;;;;;3.30;1.58;;;20.60;99.90;;;;;;5083220;28;20437;-74
2023/07/15 05:33:25;;;;;;;3.25;1.80;;;20.60;99.90;;;;;;5084125;28;20091;-71
2023/07/15 05:35:51;;;;;;;3.45;1.58;;;20.70;99.90;;;;;;5087229;28;20091;-71
2023/07/15 05:38:16;;;;;;;3.60;1.85;;;20.90;99.90;;;;;;5073191;28;20457;-71
2023/07/15 05:40:42;;;;;;;2.70;1.55;;;20.90;99.90;;;;;;5073639;28;20529;-71
2023/07/15 05:43:08;;;;;;;2.83;1.67;;;21.10;99.90;;;;;;5074061;28;20043;-71
2023/07/15 05:45:34;;;;;;;3.38;1.60;;;21.10;99.90;;;;;;5072688;28;20037;-71
2023/07/15 05:48:00;;;;;;;3.30;1.40;;;21.20;99.90;;;;;;5073979;28;20067;-72
2023/07/15 05:50:26;;;;;;;2.53;1.70;;;21.30;99.90;;;;;;5079674;28;20040;-72
2023/07/15 05:52:53;;;;;;;3.88;1.70;;;21.30;99.90;;;;;;5073712;28;20048;-71
2023/07/15 05:55:19;;;;;;;3.45;1.58;;;21.40;99.90;;;;;;5073749;28;20474;-64
2023/07/15 05:57:45;;;;;;;4.40;1.90;;;21.50;99.90;;;;;;5078883;28;20496;-64
2023/07/15 06:00:11;;;;;;;2.30;1.60;;;21.50;99.90;;;;;;5086631;28;20052;-65
2023/07/15 06:02:38;;;;;;;3.42;1.80;;;21.60;99.90;;;;;;5084848;28;20047;-65
2023/07/15 06:05:05;;;;;;;3.35;1.75;;;21.60;99.90;;;;;;5087178;28;20068;-65
2023/07/15 06:07:30;;;;;;;3.85;1.70;;;21.60;99.90;;;;;;5084595;28;20032;-65
2023/07/15 06:09:56;;;;;;;5.00;1.73;;;21.70;99.90;;;;;;5073622;28;20059;-65
2023/07/15 06:12:22;;;;;;;3.25;1.65;;;21.70;99.90;;;;;;5073429;28;20385;-65
2023/07/15 06:14:48;;;;;;;4.75;1.90;;;21.70;99.90;;;;;;5072464;28;20037;-65
2023/07/15 06:17:14;;;;;;;2.92;1.73;;;21.80;99.90;;;;;;5073421;28;20043;-65
2023/07/15 06:19:40;;;;;;;3.28;1.63;;;21.80;99.90;;;;;;5077901;28;20040;-65
2023/07/15 06:22:05;;;;;;;3.38;1.60;;;21.90;99.90;;;;;;5073158;28;20036;-65
2023/07/15 06:24:31;;;;;;;6.28;2.15;;;21.90;99.90;;;;;;5082441;28;20040;-65
2023/07/15 06:26:57;;;;;;;3.80;1.88;;;22.00;99.90;;;;;;5073572;28;20036;-65
2023/07/15 06:29:26;;;;;;;2.60;1.60;;;22.10;99.90;;;;;;5073268;28;20492;-64
2023/07/15 06:31:52;;;;;;;2.38;1.58;;;22.10;99.90;;;;;;5072522;28;20040;-63
2023/07/15 06:34:17;;;;;;;3.35;1.88;;;22.10;99.90;;;;;;5073240;28;20130;-63
2023/07/15 06:36:43;;;;;;;3.22;1.60;;;22.20;99.90;;;;;;5071970;28;20078;-63
2023/07/15 06:39:09;;;;;;;1.88;1.30;;;22.20;99.90;;;;;;5072818;28;20553;-65
2023/07/15 06:41:34;;;;;;;4.60;1.95;;;22.30;99.90;;;;;;5093347;28;20035;-64
2023/07/15 06:44:00;;;;;;;3.13;1.65;;;22.30;99.90;;;;;;5074202;28;20187;-64
2023/07/15 06:46:26;;;;;;;2.53;1.77;;;22.30;99.90;;;;;;5078143;28;20063;-64
2023/07/15 06:48:52;;;;;;;2.80;1.63;;;22.40;99.90;;;;;;5071122;28;20052;-65
2023/07/15 06:51:19;;;;;;;3.00;1.83;;;22.40;99.90;;;;;;5070303;28;20361;-64
2023/07/15 06:53:45;;;;;;;3.47;1.75;;;22.50;99.90;;;;;;5082097;28;20391;-64
2023/07/15 06:56:11;;;;;;;2.63;1.77;;;22.60;99.90;;;;;;5091507;28;20040;-64
2023/07/15 06:58:37;;;;;;;2.83;1.70;;;22.60;99.90;;;;;;5072056;28;20167;-65
2023/07/15 07:01:02;;;;;;;3.85;2.20;;;22.60;99.90;;;;;;5080524;28;20040;-65
2023/07/15 07:03:28;;;;;;;2.97;1.83;;;22.70;99.90;;;;;;5088207;28;20049;-65
2023/07/15 07:05:54;;;;;;;3.83;2.20;;;22.70;99.90;;;;;;5072318;28;20111;-64
2023/07/15 07:08:22;;;;;;;3.05;1.88;;;22.80;99.90;;;;;;5083434;28;20538;-65
2023/07/15 07:10:50;;;;;;;3.67;1.80;;;22.90;99.90;;;;;;5093212;28;20047;-64
2023/07/15 07:13:16;;;;;;;4.20;1.60;;;23.00;99.90;;;;;;5080783;28;20036;-65
2023/07/15 07:15:42;;;;;;;4.85;1.70;;;23.10;99.90;;;;;;5091344;28;20127;-64
2023/07/15 07:18:07;;;;;;;2.50;1.55;;;23.10;99.90;;;;;;5091359;28;20047;-64
2023/07/15 07:20:33;;;;;;;3.70;1.80;;;23.10;99.90;;;;;;5077931;28;20033;-64
2023/07/15 07:22:59;;;;;;;2.63;1.50;;;23.20;99.90;;;;;;5092990;28;20047;-65
2023/07/15 07:25:24;;;;;;;4.13;1.85;;;23.20;99.90;;;;;;5087166;28;20036;-64
2023/07/15 07:27:50;;;;;;;3.58;1.60;;;23.20;99.90;;;;;;5076277;28;20036;-65
2023/07/15 07:30:16;;;;;;;3.05;1.60;;;23.30;99.90;;;;;;5078852;28;20036;-64
2023/07/15 07:32:42;;;;;;;3.70;1.60;;;23.30;99.90;;;;;;5066430;28;20105;-64
2023/07/15 07:35:08;;;;;;;4.82;2.05;;;23.40;99.90;;;;;;5068148;28;20044;-65
2023/07/15 07:37:34;;;;;;;2.55;1.70;;;23.40;99.90;;;;;;5075029;28;20456;-64
2023/07/15 07:40:00;;;;;;;3.35;1.50;;;23.40;99.90;;;;;;5074320;28;20036;-63
2023/07/15 07:42:26;;;;;;;3.08;1.80;;;23.40;99.90;;;;;;5057900;28;20208;-63
2023/07/15 07:44:53;;;;;;;2.10;1.50;;;23.50;99.90;;;;;;5068268;28;20051;-64
2023/07/15 07:47:19;;;;;;;2.20;1.52;;;23.50;99.90;;;;;;5068565;28;20053;-64
2023/07/15 07:49:44;;;;;;;2.75;1.70;;;23.60;99.90;;;;;;5062865;28;20056;-64
2023/07/15 07:52:10;;;;;;;3.78;1.65;;;23.70;99.90;;;;;;5055657;28;20083;-64
2023/07/15 07:54:36;;;;;;;2.65;1.25;;;23.80;99.90;;;;;;5056104;28;20049;-63
2023/07/15 07:57:01;;;;;;;2.45;1.40;;;23.90;99.90;;;;;;5068516;28;20052;-64
2023/07/15 07:59:27;;;;;;;4.90;1.30;;;23.90;99.90;;;;;;5072019;28;20068;-64
2023/07/15 08:01:53;;;;;;;2.13;1.40;;;24.00;99.90;;;;;;5053935;28;20048;-65
2023/07/15 08:04:18;;;;;;;2.35;1.17;;;24.00;99.90;;;;;;5054802;28;20041;-64
2023/07/15 08:06:44;;;;;;;2.75;1.30;;;24.10;99.90;;;;;;5055449;28;20045;-64
2023/07/15 08:09:10;;;;;;;2.45;1.40;;;24.10;99.90;;;;;;5055842;28;20512;-70
2023/07/15 08:11:36;;;;;;;2.22;1.30;;;24.20;99.90;;;;;;5059154;28;20040;-64
2023/07/15 08:14:02;;;;;;;2.20;1.30;;;24.20;99.90;;;;;;5068299;28;20044;-64
2023/07/15 08:16:35;;;;;;;3.88;1.60;;;24.20;99.90;;;;;;5064686;28;20043;-65
2023/07/15 08:19:03;;;;;;;2.75;1.60;;;24.30;99.90;;;;;;5068281;28;20090;-65
2023/07/15 08:21:29;;;;;;;2.97;1.77;;;24.30;99.90;;;;;;5063593;28;20041;-65
2023/07/15 08:23:55;;;;;;;2.85;1.50;;;24.50;99.90;;;;;;5037431;28;20040;-66
2023/07/15 08:26:22;;;;;;;2.63;1.50;;;24.40;99.90;;;;;;5065076;28;20041;-66
2023/07/15 08:28:48;;;;;;;2.85;1.88;;;24.40;99.90;;;;;;5055676;28;20037;-65
2023/07/15 08:31:14;;;;;;;2.97;1.60;;;24.50;99.90;;;;;;5060320;28;20484;-66
2023/07/15 08:33:39;;;;;;;2.65;1.58;;;24.60;99.90;;;;;;5057984;28;20120;-65
2023/07/15 08:36:05;;;;;;;2.90;1.80;;;24.60;99.90;;;;;;5069798;28;20483;-65
2023/07/15 08:38:31;;;;;;;2.60;1.50;;;24.50;99.90;;;;;;5069154;28;20036;-65
2023/07/15 08:41:00;;;;;;;4.30;1.70;;;24.50;99.90;;;;;;5061791;28;20040;-65
2023/07/15 08:43:30;;;;;;;4.40;1.88;;;24.50;99.90;;;;;;5069020;28;20036;-65
2023/07/15 08:46:05;;;;;;;2.67;1.60;;;24.50;99.90;;;;;;5064258;28;20049;-65
2023/07/15 08:48:32;;;;;;;3.13;1.48;;;24.60;99.90;;;;;;5062586;28;20037;-65
2023/07/15 08:51:00;;;;;;;2.20;1.50;;;24.60;99.90;;;;;;5073823;28;20068;-66
2023/07/15 08:53:27;;;;;;;4.72;1.67;;;24.70;99.90;;;;;;5055042;28;20048;-65
2023/07/15 08:55:59;;;;;;;2.47;1.63;;;24.70;99.90;;;;;;5054103;28;20049;-65
2023/07/15 08:58:25;;;;;;;2.85;1.80;;;24.90;99.90;;;;;;5055191;28;20041;-65
2023/07/15 09:00:51;;;;;;;2.83;1.45;;;24.90;99.90;;;;;;5054721;28;20048;-65
2023/07/15 09:03:19;;;;;;;3.80;1.60;;;25.00;99.90;;;;;;5069444;28;20119;-65
2023/07/15 09:05:45;;;;;;;2.35;1.38;;;25.10;99.90;;;;;;5058357;28;20495;-66
2023/07/15 09:08:12;;;;;;;2.47;1.67;;;25.10;99.90;;;;;;5054587;28;20048;-66
2023/07/15 09:10:58;;;;;;;2.60;1.45;;;25.10;99.90;;;;;;5054340;28;20111;-65
2023/07/15 09:13:25;;;;;;;;;;;25.00;99.90;;;;;;5054482;28;20517;-65
2023/07/15 09:15:51;;;;;;;;;;;25.00;99.90;;;;;;5055126;28;20015;-65
2023/07/15 09:18:17;;;;;;;3.50;2.00;;;24.90;99.90;;;;;;5053879;28;19916;-65
2023/07/15 09:20:43;;;;;;;4.75;1.50;;;25.00;99.90;;;;;;5054312;28;20116;-66
2023/07/15 09:23:09;;;;;;;3.55;1.60;;;25.00;99.90;;;;;;5068871;28;20537;-66
2023/07/15 09:25:37;;;;;;;2.40;1.60;;;24.90;99.90;;;;;;5060956;28;20377;-66
2023/07/15 09:28:07;;;;;;;2.10;1.40;;;24.90;99.90;;;;;;5062005;28;20051;-66
2023/07/15 09:30:33;;;;;;;3.05;1.60;;;25.10;99.90;;;;;;5055812;28;20033;-66
2023/07/15 09:32:59;;;;;;;2.17;1.38;;;25.20;99.90;;;;;;5072497;28;20047;-66
2023/07/15 09:35:39;;;;;;;2.85;1.55;;;25.40;99.90;;;;;;5073170;28;20040;-65
2023/07/15 09:38:10;;;;;;;2.60;1.50;;;25.70;99.90;;;;;;5072847;28;20066;-66
2023/07/15 09:40:42;;;;;;;2.35;1.40;;;25.90;99.90;;;;;;5060670;28;20040;-65
2023/07/15 09:43:08;;;;;;;2.92;1.40;;;25.80;99.90;;;;;;5065855;28;20037;-65
2023/07/15 09:45:38;;;;;;;3.15;1.60;;;25.50;99.90;;;;;;5070590;28;20473;-66
2023/07/15 09:48:06;;;;;;;2.83;1.60;;;25.20;99.90;;;;;;5055355;28;20060;-66
2023/07/15 09:50:33;;;;;;;2.55;1.50;;;25.40;99.90;;;;;;5066234;28;20044;-66
2023/07/15 09:53:00;;;;;;;4.13;1.73;;;25.50;99.90;;;;;;5056414;28;20063;-66
2023/07/15 09:55:27;;;;;;;3.75;1.50;;;25.60;99.90;;;;;;5051522;28;20041;-66
2023/07/15 09:58:21;;;;;;;3.90;1.55;;;25.50;99.90;;;;;;5055604;28;20106;-66
2023/07/15 10:00:51;;;;;;;2.30;1.30;;;25.50;99.90;;;;;;5067258;28;20366;-63
2023/07/15 10:03:23;;;;;;;2.75;1.50;;;25.60;99.90;;;;;;5056082;28;20461;-64
2023/07/15 10:05:50;;;;;;;2.60;1.27;;;25.90;99.90;;;;;;5061074;28;20436;-65
2023/07/15 10:08:16;;;;;;;3.28;1.60;;;26.00;99.90;;;;;;5060584;28;20492;-65
2023/07/15 10:10:42;;;;;;;2.15;1.30;;;25.90;99.90;;;;;;5061208;28;20037;-65
2023/07/15 10:13:10;;;;;;;2.20;1.35;;;26.00;99.90;;;;;;5061560;28;20052;-65
2023/07/15 10:15:37;;;;;;;2.63;1.60;;;26.10;99.90;;;;;;5064028;28;20473;-65
2023/07/15 10:18:13;;;;;;;2.22;1.10;;;25.90;99.90;;;;;;5052237;28;20053;-66
2023/07/15 10:20:56;;;;;;;2.17;1.20;;;25.70;99.90;;;;;;5065002;28;20044;-65
2023/07/15 10:23:26;;;;;;;2.80;1.30;;;25.50;99.90;;;;;;5070276;28;20416;-65
2023/07/15 10:26:08;;;;;;;1.90;1.08;;;25.50;99.90;;;;;;5063618;28;20048;-65
2023/07/15 10:28:41;;;;;;;2.40;1.05;;;25.50;99.90;;;;;;5057307;28;20080;-65
2023/07/15 10:31:14;;;;;;;2.05;1.15;;;25.60;99.90;;;;;;5052372;28;20415;-65
2023/07/15 10:33:55;;;;;;;2.88;1.23;;;25.70;99.90;;;;;;5051354;28;20056;-65
2023/07/15 10:36:44;;;;;;;2.60;1.38;;;25.50;99.90;;;;;;5087130;28;20098;-65
2023/07/15 10:39:17;;;;;;;2.42;1.55;;;25.40;99.90;;;;;;5054287;28;20376;-65
2023/07/15 10:41:53;;;;;;;1.88;1.10;;;25.40;99.90;;;;;;5059481;28;20055;-65
2023/07/15 10:44:24;;;;;;;2.90;1.20;;;25.40;99.90;;;;;;5060159;28;20043;-65
2023/07/15 10:46:51;;;;;;;2.33;1.30;;;25.30;99.90;;;;;;5065670;28;20478;-65
2023/07/15 10:49:17;;;;;;;4.13;1.42;;;25.20;99.90;;;;;;5049942;28;20397;-65
2023/07/15 10:51:44;;;;;;;3.08;1.20;;;25.00;99.90;;;;;;5051584;28;20048;-65
2023/07/15 10:54:10;;;;;;;2.38;1.17;;;24.90;99.90;;;;;;5065529;28;20062;-66
2023/07/15 10:56:36;;;;;;;3.45;1.40;;;24.80;99.90;;;;;;5065639;28;20044;-65
2023/07/15 10:59:01;;;;;;;3.50;1.33;;;24.80;99.90;;;;;;5054098;28;20051;-65
2023/07/15 11:01:27;;;;;;;2.50;1.40;;;24.90;99.90;;;;;;5054103;28;20036;-65
2023/07/15 11:03:53;;;;;;;1.98;1.10;;;25.10;99.90;;;;;;5067259;28;20049;-65
2023/07/15 11:06:24;;;;;;;2.20;1.42;;;25.30;99.90;;;;;;5059861;28;20732;-65
2023/07/15 11:08:50;;;;;;;2.30;1.40;;;25.70;99.90;;;;;;5067308;28;20040;-65
2023/07/15 11:11:15;;;;;;;2.60;1.27;;;26.10;99.90;;;;;;5061603;28;20061;-65
2023/07/15 11:13:41;;;;;;;2.10;1.13;;;26.20;99.90;;;;;;5063300;28;20204;-66
2023/07/15 11:16:08;;;;;;;2.28;1.20;;;26.10;99.90;;;;;;5069231;28;20488;-67
2023/07/15 11:18:33;;;;;;;1.98;1.08;;;26.00;99.90;;;;;;5071661;28;20447;-66
2023/07/15 11:21:00;;;;;;;1.92;1.17;;;25.80;99.90;;;;;;5071416;28;20045;-66
2023/07/15 11:23:30;;;;;;;2.10;1.23;;;25.60;99.90;;;;;;5071258;28;20097;-65
2023/07/15 11:25:59;;;;;;;2.55;1.30;;;25.30;99.90;;;;;;5070490;28;20048;-66
2023/07/15 11:28:26;;;;;;;2.95;1.25;;;25.10;99.90;;;;;;5071655;28;20040;-66
2023/07/15 11:30:51;;;;;;;3.50;1.85;;;24.90;99.90;;;;;;5071081;28;20032;-66
2023/07/15 11:33:18;;;;;;;2.35;1.20;;;24.80;99.90;;;;;;5070742;28;20059;-66
2023/07/15 11:35:45;;;;;;;4.25;1.50;;;24.70;99.90;;;;;;5071517;28;20044;-65
2023/07/15 11:38:11;;;;;;;2.78;1.20;;;24.70;99.90;;;;;;5070898;28;20048;-66
2023/07/15 11:40:48;;;;;;;2.15;1.45;;;24.60;99.90;;;;;;5070979;28;20127;-66
2023/07/15 11:43:15;;;;;;;2.58;1.30;;;24.50;99.90;;;;;;5071161;28;20138;-65
2023/07/15 11:45:41;;;;;;;2.10;1.20;;;24.50;99.90;;;;;;5071001;28;20190;-68
2023/07/15 11:48:07;;;;;;;3.85;1.52;;;24.40;99.90;;;;;;5070863;28;20156;-66
2023/07/15 11:50:35;;;;;;;4.28;1.90;;;24.40;99.90;;;;;;5070167;28;20145;-66
2023/07/15 11:53:02;;;;;;;3.90;1.70;;;24.30;99.90;;;;;;5070902;28;20036;-68
2023/07/15 11:55:29;;;;;;;2.78;1.27;;;24.20;99.90;;;;;;5070269;28;20503;-67
2023/07/15 11:57:55;;;;;;;3.53;1.38;;;24.00;99.90;;;;;;5071912;28;20503;-67
2023/07/15 12:00:32;;;;;;;4.82;1.40;;;23.90;99.90;;;;;;5074251;28;20033;-69
2023/07/15 12:02:58;;;;;;;2.88;1.58;;;23.80;99.90;;;;;;5074239;28;20110;-68
2023/07/15 12:05:25;;;;;;;2.33;1.48;;;23.70;99.90;;;;;;5074608;28;20056;-67
2023/07/15 12:07:51;;;;;;;2.13;1.20;;;23.80;99.90;;;;;;5074280;28;20048;-68
2023/07/15 12:10:18;;;;;;;2.80;1.50;;;23.80;99.90;;;;;;5074488;28;20123;-68
2023/07/15 12:12:45;;;;;;;3.35;1.50;;;23.90;99.90;;;;;;5074614;28;20123;-67
2023/07/15 12:15:17;;;;;;;3.58;1.17;;;24.00;99.90;;;;;;5074438;28;20036;-67
2023/07/15 12:17:43;;;;;;;2.63;1.10;;;24.10;99.90;;;;;;5074212;28;20084;-67
2023/07/15 12:20:11;;;;;;;5.10;1.50;;;24.20;99.90;;;;;;5074415;28;20109;-67
2023/07/15 12:22:38;;;;;;;2.63;1.40;;;24.30;99.90;;;;;;5074016;28;20102;-67
2023/07/15 12:25:04;;;;;;;2.58;1.40;;;24.40;99.90;;;;;;5074308;28;20032;-67
2023/07/15 12:27:31;;;;;;;2.63;1.42;;;24.40;99.90;;;;;;5073106;28;20047;-66
2023/07/15 12:29:56;;;;;;;2.15;1.17;;;24.30;99.90;;;;;;5074033;28;20033;-68
2023/07/15 12:32:23;;;;;;;2.10;1.00;;;24.30;99.90;;;;;;5072619;28;20266;-68
2023/07/15 12:34:48;;;;;;;2.80;1.38;;;24.30;99.90;;;;;;5073267;28;20115;-67
2023/07/15 12:37:14;;;;;;;1.90;1.20;;;24.30;99.90;;;;;;5073728;28;20541;-68
2023/07/15 12:39:40;;;;;;;2.55;1.30;;;24.30;99.90;;;;;;5074199;28;20041;-69
2023/07/15 12:42:05;;;;;;;2.83;1.40;;;24.20;99.90;;;;;;5073952;28;20049;-68
2023/07/15 12:44:31;;;;;;;2.75;1.17;;;24.10;99.90;;;;;;5073738;28;20037;-67
2023/07/15 12:46:57;;;;;;;3.00;1.50;;;24.00;99.90;;;;;;5073422;28;20550;-68